KSEA/SEA METAR and TAF weather

Enter ICAO airport designator
Station Type Date Time Source
KSEA METAR 2020/07/14 22:53 UTC NOAA

KSEA 142253Z 34012KT 10SM SCT250 27/07 A3016 RMK AO2 SLP217 T02670072


Station Type Date Time Source
KSEA Decoded METAR 2020/07/14 22:53 UTC NOAA

SEATTLE-TACOMA INTERNATIONAL AIRPORT , WA, United States (KSEA) 47-27N 122-19W 136M
Jul 14, 2020 - 06:53 PM EDT / 2020.07.14 2253 UTC
Wind: from the NNW (340 degrees) at 14 MPH (12 KT):0
Visibility: 10 mile(s):0
Sky conditions: partly cloudy
Temperature: 80.1 F (26.7 C)
Dew Point: 45.0 F (7.2 C)
Relative Humidity: 28%
Pressure (altimeter): 30.16 in. Hg (1021 hPa)
ob: KSEA 142253Z 34012KT 10SM SCT250 27/07 A3016 RMK AO2 SLP217 T02670072
cycle: 23

Station Type Date Time Source
KSEA TAF 2020/07/14 21:03 UTC NOAA

TAF
AMD KSEA 142101Z 1421/1524 33011KT P6SM FEW045
FM150500 03008KT P6SM SKC
FM151000 03004KT P6SM SKC
FM151800 30007KT P6SM SKC

Example: see airport list